sensor_id;sensor_type;location;lat;lon;timestamp;temperature;humidity
70593;DHT22;58294;42.988;20.338;2023-04-01T00:01:40;358.80;1228.80
70593;DHT22;58294;42.988;20.338;2023-04-01T00:04:05;358.70;1228.80
70593;DHT22;58294;42.988;20.338;2023-04-01T00:06:31;358.70;1228.80
70593;DHT22;58294;42.988;20.338;2023-04-01T00:08:57;358.70;1228.80
70593;DHT22;58294;42.988;20.338;2023-04-01T00:11:23;358.70;1254.40
70593;DHT22;58294;42.988;20.338;2023-04-01T00:13:48;358.70;1228.80
70593;DHT22;58294;42.988;20.338;2023-04-01T00:16:14;358.60;1228.80
70593;DHT22;58294;42.988;20.338;2023-04-01T00:18:41;358.60;1228.80
70593;DHT22;58294;42.988;20.338;2023-04-01T00:21:07;358.50;1254.40
70593;DHT22;58294;42.988;20.338;2023-04-01T00:23:33;358.50;1254.40
70593;DHT22;58294;42.988;20.338;2023-04-01T00:26:00;358.50;1254.40
70593;DHT22;58294;42.988;20.338;2023-04-01T00:28:27;358.50;1254.40
70593;DHT22;58294;42.988;20.338;2023-04-01T00:30:53;358.50;1254.40
70593;DHT22;58294;42.988;20.338;2023-04-01T00:33:18;358.40;1254.40
70593;DHT22;58294;42.988;20.338;2023-04-01T00:35:44;358.40;1280.00
70593;DHT22;58294;42.988;20.338;2023-04-01T00:38:10;358.40;1280.00
70593;DHT22;58294;42.988;20.338;2023-04-01T00:40:44;358.50;1280.00
70593;DHT22;58294;42.988;20.338;2023-04-01T00:43:16;358.50;1280.00
70593;DHT22;58294;42.988;20.338;2023-04-01T00:45:45;358.60;1280.00
70593;DHT22;58294;42.988;20.338;2023-04-01T00:48:19;358.60;1280.00
70593;DHT22;58294;42.988;20.338;2023-04-01T00:50:53;358.60;1280.00
70593;DHT22;58294;42.988;20.338;2023-04-01T00:53:20;358.70;1254.40
70593;DHT22;58294;42.988;20.338;2023-04-01T00:56:18;358.60;1254.40
70593;DHT22;58294;42.988;20.338;2023-04-01T00:58:58;358.60;1254.40
70593;DHT22;58294;42.988;20.338;2023-04-01T01:01:26;358.60;1254.40
70593;DHT22;58294;42.988;20.338;2023-04-01T01:03:53;358.50;1280.00
70593;DHT22;58294;42.988;20.338;2023-04-01T01:06:51;358.50;1280.00
70593;DHT22;58294;42.988;20.338;2023-04-01T01:09:37;358.60;1280.00
70593;DHT22;58294;42.988;20.338;2023-04-01T01:12:18;358.60;1280.00
70593;DHT22;58294;42.988;20.338;2023-04-01T01:25:40;358.40;1280.00
70593;DHT22;58294;42.988;20.338;2023-04-01T01:31:12;358.50;1280.00
70593;DHT22;58294;42.988;20.338;2023-04-01T01:36:14;358.40;1305.60
70593;DHT22;58294;42.988;20.338;2023-04-01T01:38:41;358.40;1305.60
70593;DHT22;58294;42.988;20.338;2023-04-01T01:41:08;333.70;1331.20
70593;DHT22;58294;42.988;20.338;2023-04-01T01:43:43;333.60;1331.20
70593;DHT22;58294;42.988;20.338;2023-04-01T01:46:13;333.60;1331.20
70593;DHT22;58294;42.988;20.338;2023-04-01T01:48:42;333.60;1331.20
70593;DHT22;58294;42.988;20.338;2023-04-01T01:51:09;333.60;1356.80
70593;DHT22;58294;42.988;20.338;2023-04-01T01:53:35;333.60;1356.80
70593;DHT22;58294;42.988;20.338;2023-04-01T01:56:01;333.60;1356.80
70593;DHT22;58294;42.988;20.338;2023-04-01T01:58:43;333.60;1356.80
70593;DHT22;58294;42.988;20.338;2023-04-01T02:01:19;333.60;1331.20
70593;DHT22;58294;42.988;20.338;2023-04-01T02:03:47;333.50;1331.20
70593;DHT22;58294;42.988;20.338;2023-04-01T02:06:16;333.50;1356.80
70593;DHT22;58294;42.988;20.338;2023-04-01T02:08:47;333.50;1356.80
70593;DHT22;58294;42.988;20.338;2023-04-01T02:11:16;333.50;1331.20
70593;DHT22;58294;42.988;20.338;2023-04-01T02:16:38;333.50;1331.20
70593;DHT22;58294;42.988;20.338;2023-04-01T02:19:07;333.50;1331.20
70593;DHT22;58294;42.988;20.338;2023-04-01T02:21:34;333.30;1331.20
70593;DHT22;58294;42.988;20.338;2023-04-01T02:24:03;333.40;1331.20
70593;DHT22;58294;42.988;20.338;2023-04-01T02:26:31;333.30;1356.80
70593;DHT22;58294;42.988;20.338;2023-04-01T02:28:59;333.40;1356.80
70593;DHT22;58294;42.988;20.338;2023-04-01T02:31:26;333.40;1356.80
70593;DHT22;58294;42.988;20.338;2023-04-01T02:33:53;333.40;1356.80
70593;DHT22;58294;42.988;20.338;2023-04-01T02:36:19;333.40;1356.80
70593;DHT22;58294;42.988;20.338;2023-04-01T02:38:46;333.40;1356.80
70593;DHT22;58294;42.988;20.338;2023-04-01T02:41:13;333.50;1356.80
70593;DHT22;58294;42.988;20.338;2023-04-01T02:43:39;333.50;1356.80
70593;DHT22;58294;42.988;20.338;2023-04-01T02:46:06;333.50;1356.80
70593;DHT22;58294;42.988;20.338;2023-04-01T02:48:32;333.50;1356.80
70593;DHT22;58294;42.988;20.338;2023-04-01T02:50:57;333.50;1331.20
70593;DHT22;58294;42.988;20.338;2023-04-01T02:53:23;333.50;1331.20
70593;DHT22;58294;42.988;20.338;2023-04-01T02:55:49;333.50;1356.80
70593;DHT22;58294;42.988;20.338;2023-04-01T02:58:17;333.50;1356.80
70593;DHT22;58294;42.988;20.338;2023-04-01T03:00:43;333.50;1356.80
70593;DHT22;58294;42.988;20.338;2023-04-01T03:03:12;333.50;1356.80
70593;DHT22;58294;42.988;20.338;2023-04-01T03:05:39;333.50;1356.80
70593;DHT22;58294;42.988;20.338;2023-04-01T03:08:05;333.50;1356.80
70593;DHT22;58294;42.988;20.338;2023-04-01T03:10:31;333.50;1331.20
70593;DHT22;58294;42.988;20.338;2023-04-01T03:12:57;333.50;1356.80
70593;DHT22;58294;42.988;20.338;2023-04-01T03:15:23;333.40;1356.80
70593;DHT22;58294;42.988;20.338;2023-04-01T03:17:48;333.40;1356.80
70593;DHT22;58294;42.988;20.338;2023-04-01T03:20:14;333.40;1356.80
70593;DHT22;58294;42.988;20.338;2023-04-01T03:22:40;333.40;1356.80
70593;DHT22;58294;42.988;20.338;2023-04-01T03:25:06;333.30;1382.40
70593;DHT22;58294;42.988;20.338;2023-04-01T03:27:34;333.30;1331.20
70593;DHT22;58294;42.988;20.338;2023-04-01T03:30:01;333.20;1382.40
70593;DHT22;58294;42.988;20.338;2023-04-01T03:32:27;333.20;1382.40
70593;DHT22;58294;42.988;20.338;2023-04-01T03:34:53;333.20;1382.40
70593;DHT22;58294;42.988;20.338;2023-04-01T03:37:18;333.20;1382.40
70593;DHT22;58294;42.988;20.338;2023-04-01T03:39:44;333.20;1382.40
70593;DHT22;58294;42.988;20.338;2023-04-01T03:42:11;333.20;1382.40
70593;DHT22;58294;42.988;20.338;2023-04-01T03:44:37;333.20;1382.40
70593;DHT22;58294;42.988;20.338;2023-04-01T03:47:03;333.20;1382.40
70593;DHT22;58294;42.988;20.338;2023-04-01T03:49:29;333.20;1382.40
70593;DHT22;58294;42.988;20.338;2023-04-01T03:51:55;333.20;1382.40
70593;DHT22;58294;42.988;20.338;2023-04-01T03:54:20;333.20;1382.40
70593;DHT22;58294;42.988;20.338;2023-04-01T03:56:47;333.20;1408.00
70593;DHT22;58294;42.988;20.338;2023-04-01T03:59:13;333.20;1382.40
70593;DHT22;58294;42.988;20.338;2023-04-01T04:01:39;333.20;1382.40
70593;DHT22;58294;42.988;20.338;2023-04-01T04:04:05;333.10;1408.00
70593;DHT22;58294;42.988;20.338;2023-04-01T04:06:32;333.00;1433.60
70593;DHT22;58294;42.988;20.338;2023-04-01T04:08:57;333.00;1433.60
70593;DHT22;58294;42.988;20.338;2023-04-01T04:11:23;332.90;1433.60
70593;DHT22;58294;42.988;20.338;2023-04-01T04:13:49;332.80;1408.00
70593;DHT22;58294;42.988;20.338;2023-04-01T04:16:16;332.80;1433.60
70593;DHT22;58294;42.988;20.338;2023-04-01T04:18:42;332.80;1433.60
70593;DHT22;58294;42.988;20.338;2023-04-01T04:21:14;332.90;1459.20
70593;DHT22;58294;42.988;20.338;2023-04-01T04:23:41;332.90;1433.60
70593;DHT22;58294;42.988;20.338;2023-04-01T04:26:09;332.90;1433.60
70593;DHT22;58294;42.988;20.338;2023-04-01T04:28:35;332.90;1433.60
70593;DHT22;58294;42.988;20.338;2023-04-01T04:31:02;332.90;1433.60
70593;DHT22;58294;42.988;20.338;2023-04-01T04:33:30;333.00;1433.60
70593;DHT22;58294;42.988;20.338;2023-04-01T04:35:57;333.00;1459.20
70593;DHT22;58294;42.988;20.338;2023-04-01T04:38:23;333.00;1433.60
70593;DHT22;58294;42.988;20.338;2023-04-01T04:40:49;333.00;1433.60
70593;DHT22;58294;42.988;20.338;2023-04-01T04:43:16;333.00;1433.60
70593;DHT22;58294;42.988;20.338;2023-04-01T04:45:42;333.00;1433.60
70593;DHT22;58294;42.988;20.338;2023-04-01T04:48:09;333.00;1459.20
70593;DHT22;58294;42.988;20.338;2023-04-01T04:50:35;333.00;1433.60
70593;DHT22;58294;42.988;20.338;2023-04-01T04:53:02;333.00;1433.60
70593;DHT22;58294;42.988;20.338;2023-04-01T04:55:27;333.00;1433.60
70593;DHT22;58294;42.988;20.338;2023-04-01T04:57:53;333.00;1459.20
70593;DHT22;58294;42.988;20.338;2023-04-01T05:00:19;333.00;1433.60
70593;DHT22;58294;42.988;20.338;2023-04-01T05:02:45;333.00;1433.60
70593;DHT22;58294;42.988;20.338;2023-04-01T05:05:11;332.90;1433.60
70593;DHT22;58294;42.988;20.338;2023-04-01T05:07:36;332.90;1433.60
70593;DHT22;58294;42.988;20.338;2023-04-01T05:10:03;332.90;1459.20
70593;DHT22;58294;42.988;20.338;2023-04-01T05:12:28;333.00;1459.20
70593;DHT22;58294;42.988;20.338;2023-04-01T05:14:54;333.00;1484.80
70593;DHT22;58294;42.988;20.338;2023-04-01T05:17:20;333.10;1484.80
70593;DHT22;58294;42.988;20.338;2023-04-01T05:19:46;333.20;1484.80
70593;DHT22;58294;42.988;20.338;2023-04-01T05:22:12;333.40;1484.80
70593;DHT22;58294;42.988;20.338;2023-04-01T05:24:37;333.40;1484.80
70593;DHT22;58294;42.988;20.338;2023-04-01T05:27:03;333.50;1510.40
70593;DHT22;58294;42.988;20.338;2023-04-01T05:29:29;333.60;1484.80
70593;DHT22;58294;42.988;20.338;2023-04-01T05:31:54;333.70;1484.80
70593;DHT22;58294;42.988;20.338;2023-04-01T05:34:20;358.40;1484.80
70593;DHT22;58294;42.988;20.338;2023-04-01T05:36:46;358.40;1484.80
70593;DHT22;58294;42.988;20.338;2023-04-01T05:39:12;358.50;1484.80
70593;DHT22;58294;42.988;20.338;2023-04-01T05:41:38;358.50;1459.20
70593;DHT22;58294;42.988;20.338;2023-04-01T05:44:05;358.60;1459.20
70593;DHT22;58294;42.988;20.338;2023-04-01T05:46:31;358.60;1459.20
70593;DHT22;58294;42.988;20.338;2023-04-01T05:48:57;358.60;1459.20
70593;DHT22;58294;42.988;20.338;2023-04-01T05:51:23;358.60;1433.60
70593;DHT22;58294;42.988;20.338;2023-04-01T05:53:49;358.60;1433.60
70593;DHT22;58294;42.988;20.338;2023-04-01T05:56:15;358.60;1433.60
70593;DHT22;58294;42.988;20.338;2023-04-01T05:58:41;358.60;1459.20
70593;DHT22;58294;42.988;20.338;2023-04-01T06:01:09;358.60;1433.60
70593;DHT22;58294;42.988;20.338;2023-04-01T06:03:35;358.60;1459.20
70593;DHT22;58294;42.988;20.338;2023-04-01T06:06:01;358.60;1459.20
70593;DHT22;58294;42.988;20.338;2023-04-01T06:08:29;358.60;1459.20
70593;DHT22;58294;42.988;20.338;2023-04-01T06:14:01;358.60;1484.80
70593;DHT22;58294;42.988;20.338;2023-04-01T06:16:44;358.60;1459.20
70593;DHT22;58294;42.988;20.338;2023-04-01T06:22:37;358.60;1433.60
70593;DHT22;58294;42.988;20.338;2023-04-01T06:33:46;333.50;1510.40
70593;DHT22;58294;42.988;20.338;2023-04-01T06:44:38;333.40;1689.60
70593;DHT22;58294;42.988;20.338;2023-04-01T06:50:11;333.50;1638.40
70593;DHT22;58294;42.988;20.338;2023-04-01T06:55:38;333.50;1664.00
70593;DHT22;58294;42.988;20.338;2023-04-01T06:58:19;333.60;1715.20
70593;DHT22;58294;42.988;20.338;2023-04-01T07:00:49;333.60;1715.20
70593;DHT22;58294;42.988;20.338;2023-04-01T07:03:30;333.60;1715.20
70593;DHT22;58294;42.988;20.338;2023-04-01T07:06:04;333.70;1689.60
70593;DHT22;58294;42.988;20.338;2023-04-01T07:08:34;333.70;1740.80
70593;DHT22;58294;42.988;20.338;2023-04-01T07:11:09;333.60;1689.60
70593;DHT22;58294;42.988;20.338;2023-04-01T07:13:48;333.60;1689.60
70593;DHT22;58294;42.988;20.338;2023-04-01T07:19:12;333.60;1689.60
70593;DHT22;58294;42.988;20.338;2023-04-01T07:21:44;333.60;1740.80
70593;DHT22;58294;42.988;20.338;2023-04-01T07:24:20;333.70;1766.40
70593;DHT22;58294;42.988;20.338;2023-04-01T07:26:47;358.40;1792.00
70593;DHT22;58294;42.988;20.338;2023-04-01T07:29:14;358.40;1766.40
70593;DHT22;58294;42.988;20.338;2023-04-01T07:32:09;358.50;1792.00
70593;DHT22;58294;42.988;20.338;2023-04-01T07:34:46;358.50;1740.80
70593;DHT22;58294;42.988;20.338;2023-04-01T07:51:04;358.70;1715.20
70593;DHT22;58294;42.988;20.338;2023-04-01T07:53:38;358.70;1715.20
70593;DHT22;58294;42.988;20.338;2023-04-01T07:59:01;358.70;1766.40
70593;DHT22;58294;42.988;20.338;2023-04-01T08:01:56;358.60;1740.80
70593;DHT22;58294;42.988;20.338;2023-04-01T08:05:14;358.60;1715.20
70593;DHT22;58294;42.988;20.338;2023-04-01T08:07:55;358.60;1715.20
70593;DHT22;58294;42.988;20.338;2023-04-01T08:13:28;358.40;1766.40
70593;DHT22;58294;42.988;20.338;2023-04-01T08:16:14;333.70;1766.40
70593;DHT22;58294;42.988;20.338;2023-04-01T08:21:25;333.30;1817.60
70593;DHT22;58294;42.988;20.338;2023-04-01T08:24:00;333.20;1920.00
70593;DHT22;58294;42.988;20.338;2023-04-01T08:26:36;333.00;1945.60
70593;DHT22;58294;42.988;20.338;2023-04-01T08:29:13;332.90;1971.20
70593;DHT22;58294;42.988;20.338;2023-04-01T08:34:19;307.80;2099.20
70593;DHT22;58294;42.988;20.338;2023-04-01T08:37:14;307.60;2252.80
70593;DHT22;58294;42.988;20.338;2023-04-01T08:39:54;307.60;2252.80
70593;DHT22;58294;42.988;20.338;2023-04-01T08:42:51;307.60;2304.00
70593;DHT22;58294;42.988;20.338;2023-04-01T08:48:22;307.80;2304.00
70593;DHT22;58294;42.988;20.338;2023-04-01T08:56:31;332.90;2329.60
70593;DHT22;58294;42.988;20.338;2023-04-01T09:08:08;333.20;2329.60
70593;DHT22;58294;42.988;20.338;2023-04-01T09:22:01;307.80;2304.00
70593;DHT22;58294;42.988;20.338;2023-04-01T09:41:57;282.30;2278.40
70593;DHT22;58294;42.988;20.338;2023-04-01T09:50:10;281.90;2278.40
70593;DHT22;58294;42.988;20.338;2023-04-01T09:55:52;281.80;2278.40
70593;DHT22;58294;42.988;20.338;2023-04-01T09:58:50;281.90;2278.40
70593;DHT22;58294;42.988;20.338;2023-04-01T10:15:39;282.10;2278.40
70593;DHT22;58294;42.988;20.338;2023-04-01T10:43:50;333.40;2329.60
70593;DHT22;58294;42.988;20.338;2023-04-01T11:20:57;487.00;2380.80
70593;DHT22;58294;42.988;20.338;2023-04-01T11:28:51;512.60;2380.80
70593;DHT22;58294;42.988;20.338;2023-04-01T11:37:21;512.90;2278.40
70593;DHT22;58294;42.988;20.338;2023-04-01T11:40:11;512.80;2380.80
70593;DHT22;58294;42.988;20.338;2023-04-01T11:43:21;512.60;2022.40
70593;DHT22;58294;42.988;20.338;2023-04-01T11:54:05;512.70;2380.80
70593;DHT22;58294;42.988;20.338;2023-04-01T12:02:23;512.70;2048.00
70593;DHT22;58294;42.988;20.338;2023-04-01T12:18:46;537.60;2406.40
70593;DHT22;58294;42.988;20.338;2023-04-01T12:35:41;512.00;1766.40
70593;DHT22;58294;42.988;20.338;2023-04-01T12:40:50;461.70;1740.80
70593;DHT22;58294;42.988;20.338;2023-04-01T12:52:03;410.10;2150.40
70593;DHT22;58294;42.988;20.338;2023-04-01T12:54:46;409.80;2355.20
70593;DHT22;58294;42.988;20.338;2023-04-01T13:05:38;384.00;2329.60
70593;DHT22;58294;42.988;20.338;2023-04-01T13:11:08;384.00;2227.20
70593;DHT22;58294;42.988;20.338;2023-04-01T13:14:00;359.30;2099.20
70593;DHT22;58294;42.988;20.338;2023-04-01T13:19:35;359.30;2278.40
70593;DHT22;58294;42.988;20.338;2023-04-01T13:25:10;384.10;2329.60
70593;DHT22;58294;42.988;20.338;2023-04-01T13:27:40;384.20;2329.60
70593;DHT22;58294;42.988;20.338;2023-04-01T13:33:04;384.60;2329.60
70593;DHT22;58294;42.988;20.338;2023-04-01T13:43:25;384.30;2124.80
70593;DHT22;58294;42.988;20.338;2023-04-01T13:51:24;384.00;2227.20
70593;DHT22;58294;42.988;20.338;2023-04-01T13:54:12;359.20;2329.60
70593;DHT22;58294;42.988;20.338;2023-04-01T14:02:51;359.10;1920.00
70593;DHT22;58294;42.988;20.338;2023-04-01T14:11:16;358.60;2022.40
70593;DHT22;58294;42.988;20.338;2023-04-01T14:19:29;333.20;2329.60
70593;DHT22;58294;42.988;20.338;2023-04-01T14:24:45;333.30;2329.60
70593;DHT22;58294;42.988;20.338;2023-04-01T14:27:58;333.30;2329.60
70593;DHT22;58294;42.988;20.338;2023-04-01T14:35:41;333.60;2329.60
70593;DHT22;58294;42.988;20.338;2023-04-01T14:41:19;333.70;2329.60
70593;DHT22;58294;42.988;20.338;2023-04-01T14:49:39;333.60;2329.60
70593;DHT22;58294;42.988;20.338;2023-04-01T14:54:40;333.60;2252.80
70593;DHT22;58294;42.988;20.338;2023-04-01T14:59:48;358.40;2329.60
70593;DHT22;58294;42.988;20.338;2023-04-01T15:08:02;358.50;2329.60
70593;DHT22;58294;42.988;20.338;2023-04-01T15:30:17;358.80;2329.60
70593;DHT22;58294;42.988;20.338;2023-04-01T15:56:36;358.80;2329.60
70593;DHT22;58294;42.988;20.338;2023-04-01T16:02:12;358.70;1920.00
70593;DHT22;58294;42.988;20.338;2023-04-01T16:04:54;358.60;2329.60
70593;DHT22;58294;42.988;20.338;2023-04-01T16:07:41;358.50;2201.60
70593;DHT22;58294;42.988;20.338;2023-04-01T16:10:43;358.50;2099.20
70593;DHT22;58294;42.988;20.338;2023-04-01T16:24:30;358.50;2329.60
70593;DHT22;58294;42.988;20.338;2023-04-01T16:52:00;333.40;2329.60
70593;DHT22;58294;42.988;20.338;2023-04-01T16:54:55;333.30;2329.60
70593;DHT22;58294;42.988;20.338;2023-04-01T16:57:35;333.10;1792.00
70593;DHT22;58294;42.988;20.338;2023-04-01T17:02:55;332.90;2124.80
70593;DHT22;58294;42.988;20.338;2023-04-01T17:24:11;308.00;1843.20
70593;DHT22;58294;42.988;20.338;2023-04-01T17:32:06;307.60;2304.00
70593;DHT22;58294;42.988;20.338;2023-04-01T17:42:39;307.50;2304.00
70593;DHT22;58294;42.988;20.338;2023-04-01T17:48:03;307.50;2304.00
70593;DHT22;58294;42.988;20.338;2023-04-01T17:57:00;307.20;2304.00
70593;DHT22;58294;42.988;20.338;2023-04-01T17:59:44;282.40;2278.40
70593;DHT22;58294;42.988;20.338;2023-04-01T18:21:49;256.70;2252.80
70593;DHT22;58294;42.988;20.338;2023-04-01T18:24:40;256.60;2252.80
70593;DHT22;58294;42.988;20.338;2023-04-01T18:27:32;256.60;2252.80
70593;DHT22;58294;42.988;20.338;2023-04-01T18:30:15;256.40;2252.80
70593;DHT22;58294;42.988;20.338;2023-04-01T18:32:50;256.40;2252.80
70593;DHT22;58294;42.988;20.338;2023-04-01T18:36:22;256.40;2252.80
70593;DHT22;58294;42.988;20.338;2023-04-01T18:39:30;256.30;2252.80
70593;DHT22;58294;42.988;20.338;2023-04-01T18:47:14;256.30;2252.80
70593;DHT22;58294;42.988;20.338;2023-04-01T18:52:37;256.20;2252.80
70593;DHT22;58294;42.988;20.338;2023-04-01T18:58:27;256.10;2252.80
70593;DHT22;58294;42.988;20.338;2023-04-01T19:01:23;256.10;2252.80
70593;DHT22;58294;42.988;20.338;2023-04-01T19:04:08;256.00;2252.80
70593;DHT22;58294;42.988;20.338;2023-04-01T19:06:36;256.00;2252.80
70593;DHT22;58294;42.988;20.338;2023-04-01T19:12:09;231.20;2252.80
70593;DHT22;58294;42.988;20.338;2023-04-01T19:14:52;231.10;2252.80
70593;DHT22;58294;42.988;20.338;2023-04-01T19:25:53;231.10;2252.80
70593;DHT22;58294;42.988;20.338;2023-04-01T19:31:02;231.10;2252.80
70593;DHT22;58294;42.988;20.338;2023-04-01T19:41:36;230.90;2252.80
70593;DHT22;58294;42.988;20.338;2023-04-01T19:44:29;230.80;2252.80
70593;DHT22;58294;42.988;20.338;2023-04-01T19:47:06;230.70;2252.80
70593;DHT22;58294;42.988;20.338;2023-04-01T19:49:47;230.60;2252.80
70593;DHT22;58294;42.988;20.338;2023-04-01T19:52:35;230.60;2252.80
70593;DHT22;58294;42.988;20.338;2023-04-01T19:55:36;230.50;2252.80
70593;DHT22;58294;42.988;20.338;2023-04-01T19:58:32;230.50;2252.80
70593;DHT22;58294;42.988;20.338;2023-04-01T20:00:59;230.50;2252.80
70593;DHT22;58294;42.988;20.338;2023-04-01T20:03:38;230.40;2252.80
70593;DHT22;58294;42.988;20.338;2023-04-01T20:06:11;230.40;2252.80
70593;DHT22;58294;42.988;20.338;2023-04-01T20:11:30;230.40;2252.80
70593;DHT22;58294;42.988;20.338;2023-04-01T20:19:35;205.70;2252.80
70593;DHT22;58294;42.988;20.338;2023-04-01T20:22:04;205.70;2252.80
70593;DHT22;58294;42.988;20.338;2023-04-01T20:24:41;205.70;2252.80
70593;DHT22;58294;42.988;20.338;2023-04-01T20:29:56;205.50;2252.80
70593;DHT22;58294;42.988;20.338;2023-04-01T20:38:04;205.20;2252.80
70593;DHT22;58294;42.988;20.338;2023-04-01T20:40:40;205.10;2252.80
70593;DHT22;58294;42.988;20.338;2023-04-01T20:48:27;205.10;2252.80
70593;DHT22;58294;42.988;20.338;2023-04-01T20:51:06;205.00;2252.80
70593;DHT22;58294;42.988;20.338;2023-04-01T20:53:49;205.00;2252.80
70593;DHT22;58294;42.988;20.338;2023-04-01T21:10:11;204.80;2252.80
70593;DHT22;58294;42.988;20.338;2023-04-01T21:12:48;204.80;2252.80
70593;DHT22;58294;42.988;20.338;2023-04-01T21:21:37;180.10;2252.80
70593;DHT22;58294;42.988;20.338;2023-04-01T21:26:47;179.90;2252.80
70593;DHT22;58294;42.988;20.338;2023-04-01T21:51:06;154.50;2252.80
70593;DHT22;58294;42.988;20.338;2023-04-01T22:05:34;154.30;2252.80
70593;DHT22;58294;42.988;20.338;2023-04-01T22:23:11;154.20;2252.80
70593;DHT22;58294;42.988;20.338;2023-04-01T22:25:52;154.20;2252.80
70593;DHT22;58294;42.988;20.338;2023-04-01T22:28:32;154.10;2252.80
70593;DHT22;58294;42.988;20.338;2023-04-01T22:31:03;154.10;2252.80
70593;DHT22;58294;42.988;20.338;2023-04-01T22:42:16;154.00;2252.80
70593;DHT22;58294;42.988;20.338;2023-04-01T22:47:40;153.90;2252.80
70593;DHT22;58294;42.988;20.338;2023-04-01T22:50:19;153.90;2252.80
70593;DHT22;58294;42.988;20.338;2023-04-01T22:52:47;153.90;2252.80
70593;DHT22;58294;42.988;20.338;2023-04-01T22:55:21;153.80;2252.80
70593;DHT22;58294;42.988;20.338;2023-04-01T22:57:58;153.80;2252.80
70593;DHT22;58294;42.988;20.338;2023-04-01T23:00:39;153.70;2252.80
70593;DHT22;58294;42.988;20.338;2023-04-01T23:05:39;153.70;2252.80
70593;DHT22;58294;42.988;20.338;2023-04-01T23:10:56;153.70;2252.80
70593;DHT22;58294;42.988;20.338;2023-04-01T23:13:31;153.70;2252.80
70593;DHT22;58294;42.988;20.338;2023-04-01T23:15:58;153.70;2252.80
70593;DHT22;58294;42.988;20.338;2023-04-01T23:21:26;153.60;2252.80
70593;DHT22;58294;42.988;20.338;2023-04-01T23:29:23;128.80;2252.80
70593;DHT22;58294;42.988;20.338;2023-04-01T23:32:01;128.80;2252.80
70593;DHT22;58294;42.988;20.338;2023-04-01T23:34:34;128.80;2252.80
70593;DHT22;58294;42.988;20.338;2023-04-01T23:37:11;128.80;2252.80
70593;DHT22;58294;42.988;20.338;2023-04-01T23:39:40;128.80;2252.80
70593;DHT22;58294;42.988;20.338;2023-04-01T23:42:26;128.80;2252.80
70593;DHT22;58294;42.988;20.338;2023-04-01T23:44:58;128.70;2252.80
70593;DHT22;58294;42.988;20.338;2023-04-01T23:47:28;128.70;2252.80
70593;DHT22;58294;42.988;20.338;2023-04-01T23:49:58;128.70;2252.80
70593;DHT22;58294;42.988;20.338;2023-04-01T23:52:42;128.60;2252.80
70593;DHT22;58294;42.988;20.338;2023-04-01T23:55:17;128.60;2252.80
